Terminal Aerodrome Forecast
Issued by NWS Charleston, WV

Current Version | Previous Version | Graphics & Text | Print | Product List | Glossary On
Versions: 1 2 3 4 5 6 7 8 9 10 11 12 13 14 15 16 17 18 19 20 21 22 23 24 25 26 27 28 29 30 31
773
FTUS41 KRLX 180931 AAA
TAFPKB
TAF AMD
KPKB 180931Z 1810/1906 19007KT P6SM -SHRA OVC050
     FM181200 19008KT P6SM -SHRA OVC035
     FM181700 20011G18KT P6SM OVC035
     FM182100 20015G25KT P6SM -SHRA OVC035
     FM190000 20015G26KT 3SM SHRA OVC025
     FM190200 23012G23KT 4SM SHRA OVC015=

USA.gov is the U.S. government's official web portal to all federal, state and local government web resources and services.